Alto Crest, New Mexico
Current Conditions -  °F | °C
As of 6:15 PM on Friday 28 Nov 2014 (Local Time) from KSRR Reporting Station
Clear Clear  
Wind Chill: 42°   Ceiling: Unl
Heat Index: 46°   Visibility: 10mi
Dew Point: 18°   Wind: 8mph
Humidity: 32%   Direction: 260°W
Pressure: 30.18"   Gusts: NA
Location:  33.3909°N, 105.634°W
Report Text: KSRR 290115Z AUTO 26007KT 10SM CLR 08/M08 A3018 RMK AO2
Loading
Personal Weather Stations






























Interactive Weather Map New forecast layout! Learn more

10-Day Weather Forecast

Advertisements
Track Severe Weather on mobile